Time;durP1;ratioP1;P1;durP2;ratioP2;P2;SDS_P1;SDS_P2;PMS_P1;PMS_P2;Temp;Humidity;BMP_temperature;BMP_pressure;BME280_temperature;BME280_humidity;BME280_pressure;Samples;Min_cycle;Max_cycle;Signal;HPM_P1;HPM_P2
2022/01/08 00:02:24;;;;;;;3.78;2.15;;;0.90;99.90;;;;;;5042473;28;20204;-72
2022/01/08 00:04:58;;;;;;;2.15;1.50;;;0.90;99.90;;;;;;5050134;28;20240;-73
2022/01/08 00:07:28;;;;;;;2.35;1.50;;;0.90;99.90;;;;;;5049607;28;20298;-72
2022/01/08 00:10:00;;;;;;;1.60;1.33;;;0.90;99.90;;;;;;5050344;28;20225;-72
2022/01/08 00:12:39;;;;;;;2.40;1.45;;;0.90;99.90;;;;;;5049273;28;20216;-72
2022/01/08 00:15:08;;;;;;;1.63;1.40;;;0.90;99.90;;;;;;5047731;28;20227;-72
2022/01/08 00:17:35;;;;;;;1.90;1.25;;;0.90;99.90;;;;;;5029901;28;20217;-72
2022/01/08 00:20:02;;;;;;;1.40;1.25;;;0.90;99.90;;;;;;5030512;28;20478;-72
2022/01/08 00:22:29;;;;;;;1.40;1.30;;;0.90;99.90;;;;;;5028495;28;20210;-72
2022/01/08 00:24:57;;;;;;;2.35;1.35;;;0.90;99.90;;;;;;5030331;28;20221;-73
2022/01/08 00:27:24;;;;;;;2.05;1.83;;;1.00;99.90;;;;;;5029876;28;20225;-72
2022/01/08 00:29:52;;;;;;;1.50;1.35;;;1.00;99.90;;;;;;5029823;28;20198;-73
2022/01/08 00:32:18;;;;;;;2.28;2.08;;;1.00;99.90;;;;;;5029188;28;20707;-72
2022/01/08 00:34:45;;;;;;;2.10;1.50;;;1.00;99.90;;;;;;5029943;28;20226;-73
2022/01/08 00:37:12;;;;;;;3.33;1.75;;;1.00;99.90;;;;;;5029816;28;20448;-72
2022/01/08 00:39:40;;;;;;;4.03;2.25;;;1.00;99.90;;;;;;5030191;28;20212;-72
2022/01/08 00:42:08;;;;;;;8.52;2.13;;;1.00;99.90;;;;;;5029530;28;20213;-74
2022/01/08 00:44:35;;;;;;;2.10;1.63;;;1.00;99.90;;;;;;5029832;28;20641;-73
2022/01/08 00:47:02;;;;;;;2.50;1.70;;;1.00;99.90;;;;;;5030013;28;20229;-72
2022/01/08 00:49:28;;;;;;;2.22;1.90;;;1.00;99.90;;;;;;5029890;28;20209;-73
2022/01/08 00:51:55;;;;;;;2.45;2.05;;;1.00;99.90;;;;;;5029100;28;20673;-73
2022/01/08 00:54:22;;;;;;;5.10;2.30;;;1.00;99.90;;;;;;5029839;28;20222;-73
2022/01/08 00:56:50;;;;;;;1.83;1.48;;;1.00;99.90;;;;;;5030280;28;20198;-72
2022/01/08 00:59:18;;;;;;;4.25;1.90;;;1.00;99.90;;;;;;5029596;28;20201;-73
2022/01/08 01:01:45;;;;;;;2.03;1.70;;;1.00;99.90;;;;;;5029986;28;20206;-73
2022/01/08 01:04:12;;;;;;;2.25;1.52;;;1.00;99.90;;;;;;5031890;28;20221;-74
2022/01/08 01:06:39;;;;;;;3.55;1.90;;;1.00;99.90;;;;;;5033710;28;20228;-74
2022/01/08 01:09:05;;;;;;;2.58;1.50;;;1.00;99.90;;;;;;5033688;28;20202;-72
2022/01/08 01:11:32;;;;;;;2.75;1.45;;;1.00;99.90;;;;;;5033443;28;20232;-73
2022/01/08 01:13:59;;;;;;;2.90;1.80;;;1.00;99.90;;;;;;5033506;28;20226;-72
2022/01/08 01:16:27;;;;;;;2.33;1.75;;;1.00;99.90;;;;;;5033642;28;20698;-74
2022/01/08 01:18:54;;;;;;;3.05;1.70;;;1.00;99.90;;;;;;5033766;28;20213;-74
2022/01/08 01:21:21;;;;;;;2.15;1.80;;;1.00;99.90;;;;;;5031706;28;20564;-73
2022/01/08 01:23:49;;;;;;;2.10;1.88;;;0.90;99.90;;;;;;5033244;28;20740;-73
2022/01/08 01:26:20;;;;;;;3.45;1.85;;;0.90;99.90;;;;;;5033317;28;20598;-73
2022/01/08 01:28:53;;;;;;;2.45;1.65;;;1.00;99.90;;;;;;5033085;28;20233;-72
2022/01/08 01:42:55;;;;;;;2.67;2.20;;;1.10;99.90;;;;;;5025652;28;20700;-73
2022/01/08 01:48:06;;;;;;;3.05;1.60;;;1.00;99.90;;;;;;5033121;28;20684;-73
2022/01/08 01:50:34;;;;;;;1.85;1.67;;;1.10;99.90;;;;;;5032786;28;20202;-73
2022/01/08 01:53:01;;;;;;;1.70;1.55;;;1.20;99.90;;;;;;5032089;28;20198;-73
2022/01/08 01:55:28;;;;;;;2.08;1.67;;;1.20;99.90;;;;;;5032869;28;20208;-73
2022/01/08 01:57:55;;;;;;;2.15;1.60;;;1.20;99.90;;;;;;5032811;28;20205;-73
2022/01/08 02:00:22;;;;;;;4.35;1.50;;;1.20;99.90;;;;;;5032522;28;20837;-73
2022/01/08 02:02:48;;;;;;;2.28;1.50;;;1.20;99.90;;;;;;5032774;28;20213;-73
2022/01/08 02:05:15;;;;;;;1.75;1.30;;;1.20;99.90;;;;;;5033038;28;20225;-73
2022/01/08 02:07:43;;;;;;;1.77;1.67;;;1.30;99.90;;;;;;5032960;28;20700;-73
2022/01/08 02:10:11;;;;;;;1.85;1.40;;;1.30;99.90;;;;;;5033056;28;20587;-72
2022/01/08 02:12:37;;;;;;;1.70;1.38;;;1.40;99.90;;;;;;5032447;28;20216;-73
2022/01/08 02:15:05;;;;;;;4.63;1.40;;;1.50;99.90;;;;;;5032121;28;20222;-72
2022/01/08 02:17:32;;;;;;;1.70;1.50;;;1.50;99.90;;;;;;5033148;28;20205;-73
2022/01/08 02:20:00;;;;;;;3.80;1.70;;;1.70;99.90;;;;;;5033235;28;20224;-72
2022/01/08 02:22:26;;;;;;;9.38;1.73;;;1.70;99.90;;;;;;5031956;28;20205;-73
2022/01/08 02:24:53;;;;;;;3.20;1.90;;;1.80;99.90;;;;;;5033186;28;20237;-73
2022/01/08 02:27:21;;;;;;;1.45;1.13;;;1.80;99.90;;;;;;5032375;28;20225;-73
2022/01/08 02:29:49;;;;;;;1.83;1.50;;;1.80;99.90;;;;;;5032549;28;20214;-73
2022/01/08 02:32:19;;;;;;;2.20;1.52;;;1.80;99.90;;;;;;5032163;28;20218;-73
2022/01/08 02:34:47;;;;;;;3.60;1.52;;;1.90;99.90;;;;;;5032915;28;20218;-72
2022/01/08 02:37:17;;;;;;;2.67;1.50;;;1.90;99.90;;;;;;5032308;28;20202;-73
2022/01/08 02:39:48;;;;;;;3.58;1.88;;;1.90;99.90;;;;;;5032569;28;20661;-71
2022/01/08 02:42:18;;;;;;;2.17;1.58;;;1.90;99.90;;;;;;5032144;28;20212;-72
2022/01/08 02:44:46;;;;;;;2.40;1.67;;;2.00;99.90;;;;;;5032218;28;20313;-73
2022/01/08 02:47:15;;;;;;;3.05;1.70;;;2.00;99.90;;;;;;5032316;28;20229;-73
2022/01/08 02:49:41;;;;;;;2.00;1.50;;;2.00;99.90;;;;;;5032213;28;20201;-72
2022/01/08 02:52:09;;;;;;;2.30;1.40;;;2.10;99.90;;;;;;5031800;28;20202;-72
2022/01/08 02:54:37;;;;;;;1.75;1.13;;;2.00;99.90;;;;;;5032310;28;20229;-73
2022/01/08 02:57:05;;;;;;;3.00;1.42;;;2.10;99.90;;;;;;5032307;28;20194;-73
2022/01/08 02:59:33;;;;;;;1.90;1.67;;;2.10;99.90;;;;;;5031894;28;20212;-72
2022/01/08 03:02:00;;;;;;;1.73;1.40;;;2.10;99.90;;;;;;5030971;28;20209;-72
2022/01/08 03:04:27;;;;;;;2.20;1.60;;;2.10;99.90;;;;;;5032159;28;20221;-75
2022/01/08 03:06:53;;;;;;;1.85;1.60;;;2.00;99.90;;;;;;5032201;28;20230;-73
2022/01/08 03:09:20;;;;;;;3.13;1.92;;;2.10;99.90;;;;;;5030749;28;20209;-71
2022/01/08 03:11:48;;;;;;;2.90;2.10;;;2.00;99.90;;;;;;5031830;28;20197;-73
2022/01/08 03:14:15;;;;;;;3.33;1.80;;;2.00;99.90;;;;;;5031752;28;20225;-73
2022/01/08 03:16:42;;;;;;;2.85;1.92;;;2.00;99.90;;;;;;5031940;28;20206;-73
2022/01/08 03:19:10;;;;;;;2.92;1.60;;;2.00;99.90;;;;;;5031851;28;20684;-73
2022/01/08 03:21:41;;;;;;;4.60;2.78;;;2.00;99.90;;;;;;5031005;28;20202;-71
2022/01/08 03:24:10;;;;;;;3.92;2.03;;;1.90;99.90;;;;;;5030818;28;20221;-72
2022/01/08 03:26:37;;;;;;;2.35;2.10;;;1.90;99.90;;;;;;5031433;28;20232;-72
2022/01/08 03:29:05;;;;;;;1.92;1.80;;;1.90;99.90;;;;;;5163270;22;20223;-71
2022/01/08 03:31:32;;;;;;;1.60;1.50;;;1.80;99.90;;;;;;5110885;28;20203;-72
2022/01/08 03:33:59;;;;;;;3.58;2.08;;;1.80;99.90;;;;;;5104940;28;20224;-72
2022/01/08 03:36:26;;;;;;;2.30;1.80;;;1.80;99.90;;;;;;5092364;28;20196;-73
2022/01/08 03:38:53;;;;;;;2.97;2.05;;;1.80;99.90;;;;;;5091642;28;20204;-73
2022/01/08 03:41:22;;;;;;;2.40;2.20;;;1.70;99.90;;;;;;5091040;28;20253;-74
2022/01/08 03:43:48;;;;;;;2.80;2.10;;;1.70;99.90;;;;;;5091527;28;20771;-74
2022/01/08 03:46:19;;;;;;;3.95;2.13;;;1.70;99.90;;;;;;5091281;28;20195;-74
2022/01/08 03:48:47;;;;;;;2.60;2.40;;;1.60;99.90;;;;;;5091337;28;20227;-74
2022/01/08 03:51:15;;;;;;;3.35;2.15;;;1.60;99.90;;;;;;5091144;28;20231;-74
2022/01/08 03:53:43;;;;;;;2.50;2.15;;;1.60;99.90;;;;;;5068246;28;20303;-74
2022/01/08 03:56:10;;;;;;;4.53;2.80;;;1.60;99.90;;;;;;5070657;28;20200;-74
2022/01/08 03:58:37;;;;;;;2.50;2.30;;;1.60;99.90;;;;;;5070315;28;20236;-73
2022/01/08 04:01:04;;;;;;;3.90;3.60;;;1.60;99.90;;;;;;5069676;28;20695;-73
2022/01/08 04:03:32;;;;;;;3.30;2.72;;;1.60;99.90;;;;;;5070163;28;20221;-73
2022/01/08 04:05:59;;;;;;;3.10;2.80;;;1.60;99.90;;;;;;5070012;28;20230;-73
2022/01/08 04:08:26;;;;;;;3.20;2.90;;;1.60;99.90;;;;;;5070077;28;20227;-74
2022/01/08 04:10:52;;;;;;;4.00;3.25;;;1.60;99.90;;;;;;5074459;28;20200;-73
2022/01/08 04:13:23;;;;;;;3.30;3.00;;;1.60;99.90;;;;;;5086123;28;20283;-73
2022/01/08 04:15:53;;;;;;;2.55;2.35;;;1.60;99.90;;;;;;5076593;28;20203;-73
2022/01/08 04:18:20;;;;;;;3.55;2.92;;;1.60;99.90;;;;;;5078681;28;20196;-73
2022/01/08 04:21:05;;;;;;;2.88;2.53;;;1.70;99.90;;;;;;5083784;28;20200;-73
2022/01/08 04:23:32;;;;;;;3.60;3.25;;;1.70;99.90;;;;;;5072859;28;20223;-73
2022/01/08 04:25:59;;;;;;;3.20;2.90;;;1.70;99.90;;;;;;5089450;28;20199;-73
2022/01/08 04:28:26;;;;;;;3.35;2.92;;;1.70;99.90;;;;;;5089140;28;20230;-73
2022/01/08 04:30:52;;;;;;;3.45;3.05;;;1.70;99.90;;;;;;5074075;28;20208;-73
2022/01/08 04:33:19;;;;;;;5.70;2.83;;;1.70;99.90;;;;;;5087119;28;20210;-73
2022/01/08 04:35:47;;;;;;;3.28;2.65;;;1.70;99.90;;;;;;5084196;28;20201;-74
2022/01/08 04:38:14;;;;;;;3.85;2.67;;;1.70;99.90;;;;;;5069170;28;20204;-73
2022/01/08 04:40:41;;;;;;;2.67;2.47;;;1.60;99.90;;;;;;5069792;28;20200;-73
2022/01/08 04:43:08;;;;;;;4.00;2.45;;;1.60;99.90;;;;;;5068994;28;20220;-74
2022/01/08 04:45:35;;;;;;;4.65;3.25;;;1.60;99.90;;;;;;5086453;28;20203;-74
2022/01/08 04:48:02;;;;;;;2.78;2.50;;;1.60;99.90;;;;;;5076404;28;20718;-73
2022/01/08 04:50:30;;;;;;;2.90;2.33;;;1.60;99.90;;;;;;5089630;28;20208;-74
2022/01/08 04:52:58;;;;;;;2.70;2.25;;;1.60;99.90;;;;;;5089915;28;20203;-73
2022/01/08 04:55:25;;;;;;;3.08;2.50;;;1.50;99.90;;;;;;5090755;28;20717;-73
2022/01/08 04:57:52;;;;;;;3.17;2.35;;;1.50;99.90;;;;;;5090711;28;20200;-73
2022/01/08 05:00:20;;;;;;;2.28;2.08;;;1.50;99.90;;;;;;5090344;28;20211;-73
2022/01/08 05:02:47;;;;;;;4.25;3.22;;;1.40;99.90;;;;;;5089981;28;20195;-73
2022/01/08 05:05:14;;;;;;;2.40;2.20;;;1.40;99.90;;;;;;5090347;28;20219;-73
2022/01/08 05:07:41;;;;;;;2.75;2.35;;;1.40;99.90;;;;;;5090399;28;20223;-73
2022/01/08 05:10:09;;;;;;;2.78;2.28;;;1.30;99.90;;;;;;5090391;28;20200;-73
2022/01/08 05:12:36;;;;;;;2.80;2.53;;;1.30;99.90;;;;;;5089991;28;20203;-73
2022/01/08 05:15:03;;;;;;;2.03;1.88;;;1.30;99.90;;;;;;5089512;28;20223;-73
2022/01/08 05:17:34;;;;;;;2.40;2.20;;;1.20;99.90;;;;;;5090319;28;20195;-73
2022/01/08 05:20:03;;;;;;;1.90;1.70;;;1.20;99.90;;;;;;5090518;28;20206;-73
2022/01/08 05:22:48;;;;;;;3.08;2.13;;;1.30;99.90;;;;;;5070179;28;20201;-73
2022/01/08 05:25:18;;;;;;;2.25;2.08;;;1.30;99.90;;;;;;5069737;28;20220;-73
2022/01/08 05:27:44;;;;;;;1.63;1.52;;;1.30;99.90;;;;;;5068950;28;20228;-73
2022/01/08 05:30:12;;;;;;;1.70;1.42;;;1.30;99.90;;;;;;5069783;28;20197;-73
2022/01/08 05:32:39;;;;;;;1.30;1.20;;;1.30;99.90;;;;;;5069557;28;20560;-73
2022/01/08 05:35:07;;;;;;;1.48;1.38;;;1.40;99.90;;;;;;5140139;22;20228;-73
2022/01/08 05:37:33;;;;;;;1.92;1.48;;;1.30;99.90;;;;;;5101411;22;20635;-73
2022/01/08 05:40:00;;;;;;;2.17;1.35;;;1.40;99.90;;;;;;5050751;28;20205;-73
2022/01/08 05:42:28;;;;;;;1.70;1.60;;;1.40;99.90;;;;;;5050463;28;20201;-72
2022/01/08 05:44:55;;;;;;;2.65;1.23;;;1.40;99.90;;;;;;5051000;28;20250;-73
2022/01/08 05:47:22;;;;;;;1.60;1.50;;;1.40;99.90;;;;;;5052799;28;20221;-73
2022/01/08 05:49:49;;;;;;;1.38;1.08;;;1.50;99.90;;;;;;5053639;28;20197;-73
2022/01/08 05:52:17;;;;;;;1.73;1.52;;;1.50;99.90;;;;;;5056587;28;20669;-73
2022/01/08 05:54:44;;;;;;;1.85;1.50;;;1.50;99.90;;;;;;5057283;28;20224;-73
2022/01/08 05:57:10;;;;;;;1.30;1.20;;;1.50;99.90;;;;;;5056487;28;20209;-72
2022/01/08 05:59:39;;;;;;;1.80;1.30;;;1.50;99.90;;;;;;5056292;28;20623;-72
2022/01/08 06:02:08;;;;;;;1.25;1.10;;;1.50;99.90;;;;;;5057119;28;20212;-73
2022/01/08 06:04:35;;;;;;;1.20;1.00;;;1.50;99.90;;;;;;5041789;28;20749;-72
2022/01/08 06:07:01;;;;;;;1.25;0.90;;;1.50;99.90;;;;;;5034228;28;20205;-73
2022/01/08 06:09:28;;;;;;;1.58;1.02;;;1.50;99.90;;;;;;5034718;28;20210;-73
2022/01/08 06:11:55;;;;;;;1.08;0.90;;;1.50;99.90;;;;;;5033906;28;20202;-73
2022/01/08 06:14:22;;;;;;;1.15;0.98;;;1.50;99.90;;;;;;5035783;28;20218;-73
2022/01/08 06:16:50;;;;;;;1.30;1.20;;;1.40;99.90;;;;;;5034790;28;20221;-73
2022/01/08 06:19:17;;;;;;;1.45;1.00;;;1.40;99.90;;;;;;5034756;28;20198;-74
2022/01/08 06:21:44;;;;;;;1.30;1.10;;;1.40;99.90;;;;;;5033659;28;20204;-73
2022/01/08 06:24:11;;;;;;;1.40;1.00;;;1.40;99.90;;;;;;5034107;28;20708;-73
2022/01/08 06:26:38;;;;;;;5.32;1.20;;;1.40;99.90;;;;;;5033860;28;20214;-73
2022/01/08 06:29:05;;;;;;;1.35;1.10;;;1.30;99.90;;;;;;5034608;28;20233;-73
2022/01/08 06:31:31;;;;;;;1.27;0.90;;;1.40;99.90;;;;;;5033565;28;20210;-73
2022/01/08 06:33:59;;;;;;;1.30;0.93;;;1.30;99.90;;;;;;5035652;28;20245;-72
2022/01/08 06:36:30;;;;;;;1.00;0.90;;;1.30;99.90;;;;;;5033918;28;20217;-73
2022/01/08 06:38:57;;;;;;;1.02;0.90;;;1.20;99.90;;;;;;5034820;28;20201;-72
2022/01/08 06:41:23;;;;;;;4.07;1.15;;;1.20;99.90;;;;;;5033637;28;20209;-72
2022/01/08 06:43:50;;;;;;;1.38;1.27;;;1.20;99.90;;;;;;5033386;28;20229;-71
2022/01/08 06:46:17;;;;;;;1.02;0.93;;;1.20;99.90;;;;;;5032866;28;20205;-71
2022/01/08 06:48:43;;;;;;;1.10;1.00;;;1.20;99.90;;;;;;5032648;28;20217;-72
2022/01/08 06:51:11;;;;;;;1.10;1.00;;;1.20;99.90;;;;;;5032226;28;20202;-72
2022/01/08 06:53:38;;;;;;;2.35;1.38;;;1.20;99.90;;;;;;5033207;28;20230;-72
2022/01/08 06:56:05;;;;;;;1.50;1.33;;;1.20;99.90;;;;;;5032643;28;20197;-72
2022/01/08 06:58:32;;;;;;;1.27;1.10;;;1.20;99.90;;;;;;5032605;28;20201;-72
2022/01/08 07:00:59;;;;;;;2.78;1.48;;;1.10;99.90;;;;;;5030213;28;20727;-72
2022/01/08 07:03:26;;;;;;;1.73;1.30;;;1.20;99.90;;;;;;5032021;28;20237;-72
2022/01/08 07:05:52;;;;;;;1.85;1.23;;;1.20;99.90;;;;;;5031663;28;20558;-72
2022/01/08 07:08:20;;;;;;;1.83;1.70;;;1.20;99.90;;;;;;5032008;28;20227;-72
2022/01/08 07:10:47;;;;;;;1.70;1.50;;;1.20;99.90;;;;;;5031598;28;20214;-72
2022/01/08 07:13:14;;;;;;;1.63;1.30;;;1.20;99.90;;;;;;5031427;28;20202;-72
2022/01/08 07:15:41;;;;;;;3.90;1.55;;;1.20;99.90;;;;;;5031624;28;20201;-72
2022/01/08 07:18:08;;;;;;;2.20;1.85;;;1.20;99.90;;;;;;5031684;28;20194;-72
2022/01/08 07:20:34;;;;;;;1.55;1.33;;;1.20;99.90;;;;;;5031609;28;20230;-72
2022/01/08 07:23:01;;;;;;;1.52;1.35;;;1.20;99.90;;;;;;5031102;28;20677;-72
2022/01/08 07:25:29;;;;;;;4.43;1.70;;;1.10;99.90;;;;;;5031678;28;20229;-72
2022/01/08 07:27:56;;;;;;;1.85;1.65;;;1.20;99.90;;;;;;5031364;28;20221;-71
2022/01/08 07:30:23;;;;;;;2.20;1.83;;;1.20;99.90;;;;;;5032265;28;20205;-72
2022/01/08 07:32:51;;;;;;;3.15;1.67;;;1.20;99.90;;;;;;5031046;28;20244;-72
2022/01/08 07:35:21;;;;;;;1.90;1.60;;;1.10;99.90;;;;;;5031851;28;20225;-72
2022/01/08 07:37:49;;;;;;;2.97;2.03;;;1.10;99.90;;;;;;5031675;28;20220;-72
2022/01/08 07:40:16;;;;;;;1.92;1.73;;;1.20;99.90;;;;;;5031972;28;20205;-72
2022/01/08 07:42:44;;;;;;;2.97;2.22;;;1.20;99.90;;;;;;5031249;28;20202;-72
2022/01/08 07:45:11;;;;;;;2.30;1.95;;;1.20;99.90;;;;;;5031336;28;20228;-72
2022/01/08 07:47:38;;;;;;;1.98;1.60;;;1.20;99.90;;;;;;5031728;28;20236;-72
2022/01/08 07:50:07;;;;;;;3.78;2.95;;;1.20;99.90;;;;;;5031418;28;20206;-73
2022/01/08 07:52:34;;;;;;;2.85;2.17;;;1.30;99.90;;;;;;5031082;28;20779;-72
2022/01/08 07:55:01;;;;;;;3.42;2.10;;;1.30;99.90;;;;;;5031056;28;20606;-72
2022/01/08 07:57:28;;;;;;;3.22;2.17;;;1.20;99.90;;;;;;5031297;28;20692;-72
2022/01/08 07:59:56;;;;;;;4.20;2.00;;;1.20;99.90;;;;;;5032913;28;20549;-73
2022/01/08 08:02:22;;;;;;;2.20;1.80;;;1.20;99.90;;;;;;5033202;28;20288;-72
2022/01/08 08:04:49;;;;;;;2.35;2.15;;;1.20;99.90;;;;;;5033559;28;20226;-72
2022/01/08 08:07:27;;;;;;;2.92;2.63;;;1.30;99.90;;;;;;5034035;28;20209;-72
2022/01/08 08:09:53;;;;;;;2.33;2.13;;;1.30;99.90;;;;;;5031464;28;20252;-73
2022/01/08 08:12:20;;;;;;;4.57;2.55;;;1.30;99.90;;;;;;5030815;28;20676;-72
2022/01/08 08:14:47;;;;;;;2.80;2.15;;;1.30;99.90;;;;;;5031208;28;20233;-72
2022/01/08 08:17:15;;;;;;;4.10;2.53;;;1.30;99.90;;;;;;5031402;28;20613;-72
2022/01/08 08:19:41;;;;;;;5.70;2.30;;;1.30;99.90;;;;;;5031561;28;20289;-72
2022/01/08 08:22:09;;;;;;;3.22;2.22;;;1.30;99.90;;;;;;5030970;28;20202;-72
2022/01/08 08:24:35;;;;;;;5.03;2.20;;;1.30;99.90;;;;;;5031236;28;20732;-72
2022/01/08 08:27:02;;;;;;;2.30;2.10;;;1.40;99.90;;;;;;5031237;28;20232;-72
2022/01/08 08:29:29;;;;;;;4.38;2.58;;;1.40;99.90;;;;;;5031730;28;20271;-72
2022/01/08 08:31:55;;;;;;;5.40;2.30;;;1.40;99.90;;;;;;5031983;28;20209;-73
2022/01/08 08:34:23;;;;;;;2.25;2.05;;;1.40;99.90;;;;;;5035210;28;20222;-73
2022/01/08 08:36:50;;;;;;;3.45;2.30;;;1.50;99.90;;;;;;5035146;28;20700;-73
2022/01/08 08:39:17;;;;;;;3.80;2.40;;;1.60;99.90;;;;;;5035724;28;20208;-73
2022/01/08 08:41:43;;;;;;;3.28;1.90;;;1.60;99.90;;;;;;5034767;28;20558;-73
2022/01/08 08:44:10;;;;;;;3.50;2.25;;;1.70;99.90;;;;;;5035864;28;20229;-73
2022/01/08 08:46:37;;;;;;;2.80;2.08;;;1.80;99.90;;;;;;5034782;28;20209;-73
2022/01/08 08:49:04;;;;;;;3.40;2.40;;;2.10;99.90;;;;;;5034008;28;20217;-73
2022/01/08 08:51:32;;;;;;;6.80;2.30;;;2.50;99.90;;;;;;5034165;28;20209;-73
2022/01/08 08:53:58;;;;;;;2.75;1.85;;;2.70;99.90;;;;;;5033480;28;20225;-73
2022/01/08 08:56:25;;;;;;;1.83;1.60;;;2.70;99.90;;;;;;5033010;28;20205;-73
2022/01/08 08:58:52;;;;;;;4.05;2.15;;;2.60;99.90;;;;;;5033328;28;20201;-73
2022/01/08 09:01:18;;;;;;;3.10;2.08;;;2.50;99.90;;;;;;5033218;28;20202;-73
2022/01/08 09:03:45;;;;;;;4.00;1.92;;;2.40;99.90;;;;;;5033212;28;20745;-73
2022/01/08 09:06:12;;;;;;;1.88;1.60;;;2.30;99.90;;;;;;5033351;28;20206;-73
2022/01/08 09:08:40;;;;;;;2.40;1.65;;;2.20;99.90;;;;;;5032181;28;20218;-74
2022/01/08 09:11:07;;;;;;;1.95;1.70;;;2.20;99.90;;;;;;5030415;28;20206;-72
2022/01/08 09:13:33;;;;;;;1.90;1.70;;;2.20;99.90;;;;;;5030890;28;20221;-73
2022/01/08 09:16:00;;;;;;;1.60;1.50;;;2.20;99.90;;;;;;5031132;28;20209;-74
2022/01/08 09:18:27;;;;;;;2.93;2.10;;;2.30;99.90;;;;;;5031488;28;20449;-71
2022/01/08 09:20:53;;;;;;;2.13;1.92;;;2.30;99.90;;;;;;5031912;28;21037;-71
2022/01/08 09:23:20;;;;;;;1.88;1.70;;;2.30;99.90;;;;;;5031666;28;20608;-71
2022/01/08 09:25:48;;;;;;;2.08;1.85;;;2.20;99.90;;;;;;5033942;28;20205;-70
2022/01/08 09:28:15;;;;;;;1.88;1.73;;;2.30;99.90;;;;;;5034616;28;20201;-71
2022/01/08 09:30:42;;;;;;;2.15;1.95;;;2.30;99.90;;;;;;5034171;28;20218;-70
2022/01/08 09:33:09;;;;;;;1.85;1.63;;;2.40;99.90;;;;;;5034301;28;20279;-71
2022/01/08 09:35:35;;;;;;;2.25;2.00;;;2.50;99.90;;;;;;5036273;28;20202;-70
2022/01/08 09:38:02;;;;;;;2.30;2.10;;;2.60;99.90;;;;;;5044624;28;20575;-71
2022/01/08 09:40:29;;;;;;;2.10;1.77;;;2.60;99.90;;;;;;5036609;28;20622;-70
2022/01/08 09:42:58;;;;;;;2.35;2.15;;;2.60;99.90;;;;;;5037210;28;20213;-70
2022/01/08 09:45:25;;;;;;;2.58;1.80;;;2.60;99.90;;;;;;5037911;28;20574;-70
2022/01/08 09:47:52;;;;;;;2.40;2.05;;;2.70;99.90;;;;;;5035515;28;20626;-70
2022/01/08 09:50:19;;;;;;;2.45;2.25;;;2.70;99.90;;;;;;5034384;28;20278;-70
2022/01/08 09:52:46;;;;;;;4.28;2.60;;;2.60;99.90;;;;;;5034078;28;20241;-70
2022/01/08 09:55:13;;;;;;;2.60;2.10;;;2.70;99.90;;;;;;5034499;28;20712;-70
2022/01/08 09:57:40;;;;;;;4.40;2.05;;;3.00;99.90;;;;;;5034309;28;20256;-71
2022/01/08 10:00:14;;;;;;;3.42;2.22;;;3.40;99.90;;;;;;5032943;28;20222;-70
2022/01/08 10:02:41;;;;;;;2.60;1.98;;;3.70;99.90;;;;;;5033016;28;20217;-70
2022/01/08 10:05:09;;;;;;;2.30;1.90;;;3.70;99.90;;;;;;5033710;28;20578;-69
2022/01/08 10:07:36;;;;;;;3.20;2.10;;;3.50;99.90;;;;;;5033857;28;20669;-70
2022/01/08 10:10:10;;;;;;;1.77;1.67;;;3.40;99.90;;;;;;5037631;28;20225;-70
2022/01/08 10:12:44;;;;;;;2.50;1.75;;;3.20;99.90;;;;;;5036518;28;20580;-69
2022/01/08 10:17:58;;;;;;;3.15;2.38;;;3.00;99.90;;;;;;5036083;28;20204;-69
2022/01/08 10:20:33;;;;;;;6.43;2.08;;;2.80;99.90;;;;;;5035356;28;20228;-70
2022/01/08 10:23:10;;;;;;;3.85;1.95;;;2.60;99.90;;;;;;5033638;28;20205;-69
2022/01/08 10:25:37;;;;;;;2.75;1.65;;;2.50;99.90;;;;;;5034671;28;20557;-71
2022/01/08 10:28:04;;;;;;;5.50;2.60;;;2.50;99.90;;;;;;5034136;28;20202;-69
2022/01/08 10:30:33;;;;;;;2.72;1.63;;;2.40;99.90;;;;;;5033518;28;20221;-70
2022/01/08 10:33:01;;;;;;;5.40;2.10;;;2.40;99.90;;;;;;5033614;28;20209;-70
2022/01/08 10:35:47;;;;;;;5.80;2.00;;;2.40;99.90;;;;;;5033222;28;20231;-69
2022/01/08 10:38:14;;;;;;;3.22;2.10;;;2.30;99.90;;;;;;5032219;28;20255;-69
2022/01/08 10:40:40;;;;;;;5.43;1.90;;;2.20;99.90;;;;;;5032176;28;21053;-69
2022/01/08 10:43:23;;;;;;;2.60;1.95;;;2.30;99.90;;;;;;5031428;28;20212;-72
2022/01/08 10:45:52;;;;;;;2.15;1.75;;;2.30;99.90;;;;;;5032286;28;20202;-71
2022/01/08 10:48:29;;;;;;;5.35;1.70;;;2.40;99.90;;;;;;5032342;28;20209;-71
2022/01/08 10:51:09;;;;;;;2.40;1.63;;;2.30;99.90;;;;;;5030751;28;20205;-71
2022/01/08 10:53:58;;;;;;;1.60;1.45;;;2.40;99.90;;;;;;5032177;28;20236;-69
2022/01/08 10:56:26;;;;;;;2.92;1.83;;;2.70;99.90;;;;;;5031870;28;20580;-70
2022/01/08 10:58:57;;;;;;;2.90;1.90;;;3.00;99.90;;;;;;5031918;28;20210;-70
2022/01/08 11:01:40;;;;;;;5.07;2.10;;;3.00;99.90;;;;;;5030560;28;20208;-70
2022/01/08 11:04:09;;;;;;;3.25;1.80;;;3.00;99.90;;;;;;5031905;28;20225;-70
2022/01/08 11:06:50;;;;;;;2.60;1.90;;;2.90;99.90;;;;;;5033099;28;20226;-69
2022/01/08 11:09:17;;;;;;;3.67;2.00;;;3.10;99.90;;;;;;5034364;28;20232;-70
2022/01/08 11:11:44;;;;;;;2.70;1.70;;;5.00;99.90;;;;;;5032935;28;20201;-71
2022/01/08 11:14:22;;;;;;;4.68;1.67;;;6.90;99.90;;;;;;5015534;28;20242;-70
2022/01/08 11:16:52;;;;;;;4.00;1.83;;;9.00;99.90;;;;;;5014132;28;20202;-70
2022/01/08 11:19:19;;;;;;;4.05;1.70;;;10.90;99.90;;;;;;5013072;28;20218;-69
2022/01/08 11:21:49;;;;;;;1.98;1.38;;;11.10;99.20;;;;;;5014673;28;20203;-70
2022/01/08 11:24:18;;;;;;;6.38;2.00;;;9.50;99.40;;;;;;5014809;28;20302;-73
2022/01/08 11:26:50;;;;;;;5.32;1.75;;;7.90;99.90;;;;;;5016559;28;20658;-72
2022/01/08 11:29:22;;;;;;;2.65;1.70;;;7.40;99.90;;;;;;5033404;28;20225;-71
2022/01/08 11:31:56;;;;;;;3.45;1.80;;;7.70;99.90;;;;;;5033980;28;20225;-70
2022/01/08 11:34:25;;;;;;;2.67;1.40;;;8.60;99.90;;;;;;5031883;28;20228;-70
2022/01/08 11:36:52;;;;;;;3.25;2.15;;;10.00;99.90;;;;;;5033499;28;20291;-69
2022/01/08 11:39:23;;;;;;;3.05;1.50;;;10.30;99.10;;;;;;5030403;28;20208;-70
2022/01/08 11:41:50;;;;;;;2.72;1.33;;;9.90;99.20;;;;;;5030874;28;20707;-70
2022/01/08 11:44:17;;;;;;;2.60;1.38;;;8.70;99.80;;;;;;5030930;28;20992;-70
2022/01/08 11:46:45;;;;;;;3.30;1.90;;;7.60;99.90;;;;;;5031018;28;20208;-70
2022/01/08 11:49:14;;;;;;;3.67;1.75;;;6.70;99.90;;;;;;5029707;28;20222;-70
2022/01/08 11:51:41;;;;;;;3.40;1.70;;;6.00;99.90;;;;;;5030304;28;20684;-70
2022/01/08 11:54:07;;;;;;;3.67;1.70;;;5.20;99.90;;;;;;5031413;28;20225;-70
2022/01/08 11:56:37;;;;;;;2.90;1.67;;;4.80;99.90;;;;;;5031632;28;20209;-69
2022/01/08 11:59:06;;;;;;;3.95;1.80;;;4.80;99.90;;;;;;5030753;28;20213;-70
2022/01/08 12:01:34;;;;;;;4.45;1.70;;;4.90;99.90;;;;;;5027717;28;20845;-70
2022/01/08 12:04:01;;;;;;;5.90;1.40;;;4.90;99.90;;;;;;5023786;28;20508;-70
2022/01/08 12:06:38;;;;;;;2.38;1.60;;;5.00;99.90;;;;;;5010735;28;20666;-71
2022/01/08 12:09:19;;;;;;;2.65;1.98;;;5.10;99.90;;;;;;5009370;28;20253;-71
2022/01/08 12:12:00;;;;;;;1.83;1.45;;;5.10;99.90;;;;;;5009739;28;20257;-71
2022/01/08 12:14:29;;;;;;;2.15;1.50;;;4.90;99.90;;;;;;5010256;28;20226;-70
2022/01/08 12:16:56;;;;;;;5.57;1.52;;;4.50;99.90;;;;;;5009792;28;20203;-71
2022/01/08 12:19:31;;;;;;;3.85;2.00;;;4.30;99.90;;;;;;5009660;28;20677;-71
2022/01/08 12:22:00;;;;;;;5.43;2.45;;;4.30;99.90;;;;;;5009706;28;20206;-71
2022/01/08 12:24:34;;;;;;;2.55;1.70;;;4.00;99.90;;;;;;5009728;28;20225;-70
2022/01/08 12:27:03;;;;;;;1.58;1.48;;;3.50;99.90;;;;;;5009478;28;20202;-71
2022/01/08 12:29:34;;;;;;;3.20;1.90;;;3.30;99.90;;;;;;5009775;28;20218;-71
2022/01/08 12:32:27;;;;;;;3.80;2.05;;;3.60;99.90;;;;;;5009294;28;20203;-70
2022/01/08 12:37:36;;;;;;;4.07;2.10;;;3.70;99.90;;;;;;5027685;28;20225;-74
2022/01/08 12:40:04;;;;;;;3.47;1.70;;;3.60;99.90;;;;;;5025357;28;20217;-72
2022/01/08 12:42:43;;;;;;;3.92;2.58;;;3.90;99.90;;;;;;5010720;28;20682;-72
2022/01/08 12:45:20;;;;;;;3.90;1.63;;;4.20;99.90;;;;;;5009854;28;20284;-73
2022/01/08 12:47:54;;;;;;;3.88;1.55;;;4.80;99.90;;;;;;5010129;28;20293;-72
2022/01/08 12:50:29;;;;;;;2.45;1.90;;;5.80;99.90;;;;;;5010028;28;20236;-72
2022/01/08 12:53:31;;;;;;;4.40;1.60;;;6.40;99.90;;;;;;5007678;28;20213;-73
2022/01/08 12:56:12;;;;;;;3.78;1.85;;;6.20;99.90;;;;;;5009553;28;20293;-72
2022/01/08 12:58:46;;;;;;;3.17;1.70;;;5.80;99.90;;;;;;5010437;28;20202;-73
2022/01/08 13:01:14;;;;;;;1.60;1.50;;;5.80;99.90;;;;;;5017243;28;20197;-73
2022/01/08 13:03:42;;;;;;;3.78;1.75;;;5.90;99.90;;;;;;5027565;28;20218;-73
2022/01/08 13:06:26;;;;;;;2.30;1.63;;;5.60;99.90;;;;;;5014076;28;20631;-72
2022/01/08 13:08:55;;;;;;;3.00;2.10;;;5.20;99.90;;;;;;5012944;28;20206;-72
2022/01/08 13:11:24;;;;;;;2.25;1.65;;;4.70;99.90;;;;;;5012468;28;20237;-72
2022/01/08 13:13:53;;;;;;;1.80;1.20;;;4.20;99.90;;;;;;5014543;28;20233;-73
2022/01/08 13:16:22;;;;;;;2.20;1.50;;;4.10;99.90;;;;;;5028695;28;20662;-71
2022/01/08 13:18:49;;;;;;;2.35;1.90;;;3.80;99.90;;;;;;5013132;28;20202;-71
2022/01/08 13:21:16;;;;;;;2.25;1.88;;;3.70;99.90;;;;;;5012119;28;20226;-72
2022/01/08 13:23:45;;;;;;;2.90;2.10;;;3.50;99.90;;;;;;5013125;28;20246;-72
2022/01/08 13:26:14;;;;;;;3.40;1.73;;;3.50;99.90;;;;;;5012385;28;20526;-72